sensor_id;sensor_type;location;lat;lon;timestamp;pressure;altitude;pressure_sealevel;temperature;humidity
596;BME280;19946;49.306;11.350;2023-03-16T00:01:36;96833.97;;;-4.96;100.00
596;BME280;19946;49.306;11.350;2023-03-16T00:04:37;96799.66;;;-5.06;100.00
596;BME280;19946;49.306;11.350;2023-03-16T00:07:38;96831.44;;;-4.96;100.00
596;BME280;19946;49.306;11.350;2023-03-16T00:10:38;96839.88;;;-4.97;100.00
596;BME280;19946;49.306;11.350;2023-03-16T00:13:39;96834.09;;;-5.02;100.00
596;BME280;19946;49.306;11.350;2023-03-16T00:16:41;96836.50;;;-4.96;100.00
596;BME280;19946;49.306;11.350;2023-03-16T00:19:42;96823.00;;;-4.95;100.00
596;BME280;19946;49.306;11.350;2023-03-16T00:22:45;96828.03;;;-4.94;100.00
596;BME280;19946;49.306;11.350;2023-03-16T00:25:46;96831.09;;;-5.23;100.00
596;BME280;19946;49.306;11.350;2023-03-16T00:28:46;96821.03;;;-5.26;100.00
596;BME280;19946;49.306;11.350;2023-03-16T00:31:47;96783.53;;;-5.47;100.00
596;BME280;19946;49.306;11.350;2023-03-16T00:34:48;96831.97;;;-5.25;100.00
596;BME280;19946;49.306;11.350;2023-03-16T00:37:48;96787.91;;;-5.58;100.00
596;BME280;19946;49.306;11.350;2023-03-16T00:40:50;96808.59;;;-5.36;100.00
596;BME280;19946;49.306;11.350;2023-03-16T00:43:50;96806.25;;;-5.47;100.00
596;BME280;19946;49.306;11.350;2023-03-16T00:46:52;96783.13;;;-5.73;100.00
596;BME280;19946;49.306;11.350;2023-03-16T00:49:53;96812.22;;;-5.53;100.00
596;BME280;19946;49.306;11.350;2023-03-16T00:52:54;96804.53;;;-5.45;100.00
596;BME280;19946;49.306;11.350;2023-03-16T00:55:54;96804.44;;;-5.40;100.00
596;BME280;19946;49.306;11.350;2023-03-16T00:58:54;96800.31;;;-5.44;100.00
596;BME280;19946;49.306;11.350;2023-03-16T01:01:56;96779.59;;;-5.63;100.00
596;BME280;19946;49.306;11.350;2023-03-16T01:04:57;96793.59;;;-5.45;100.00
596;BME280;19946;49.306;11.350;2023-03-16T01:07:59;96803.66;;;-5.42;100.00
596;BME280;19946;49.306;11.350;2023-03-16T01:11:04;96809.00;;;-5.10;100.00
596;BME280;19946;49.306;11.350;2023-03-16T01:14:04;96825.84;;;-5.12;100.00
596;BME280;19946;49.306;11.350;2023-03-16T01:17:06;96796.56;;;-5.21;100.00
596;BME280;19946;49.306;11.350;2023-03-16T01:20:08;96821.31;;;-4.93;100.00
596;BME280;19946;49.306;11.350;2023-03-16T01:23:12;96828.94;;;-4.96;100.00
596;BME280;19946;49.306;11.350;2023-03-16T01:26:12;96835.81;;;-5.04;100.00
596;BME280;19946;49.306;11.350;2023-03-16T01:29:15;96795.69;;;-5.20;100.00
596;BME280;19946;49.306;11.350;2023-03-16T01:32:16;96802.28;;;-5.11;100.00
596;BME280;19946;49.306;11.350;2023-03-16T01:35:16;96833.19;;;-4.98;100.00
596;BME280;19946;49.306;11.350;2023-03-16T01:38:17;96829.53;;;-4.84;100.00
596;BME280;19946;49.306;11.350;2023-03-16T01:41:17;96831.97;;;-4.78;100.00
596;BME280;19946;49.306;11.350;2023-03-16T01:44:20;96790.25;;;-4.98;100.00
596;BME280;19946;49.306;11.350;2023-03-16T01:47:22;96838.34;;;-5.04;100.00
596;BME280;19946;49.306;11.350;2023-03-16T01:50:23;96789.47;;;-5.51;100.00
596;BME280;19946;49.306;11.350;2023-03-16T01:53:23;96809.75;;;-5.56;100.00
596;BME280;19946;49.306;11.350;2023-03-16T01:56:30;96804.09;;;-5.71;100.00
596;BME280;19946;49.306;11.350;2023-03-16T01:59:41;96831.66;;;-5.59;100.00
596;BME280;19946;49.306;11.350;2023-03-16T02:02:47;96815.84;;;-5.70;100.00
596;BME280;19946;49.306;11.350;2023-03-16T02:06:01;96806.63;;;-5.73;100.00
596;BME280;19946;49.306;11.350;2023-03-16T02:09:05;96815.63;;;-5.55;100.00
596;BME280;19946;49.306;11.350;2023-03-16T02:12:07;96825.69;;;-5.54;100.00
596;BME280;19946;49.306;11.350;2023-03-16T02:15:14;96816.50;;;-5.56;100.00
596;BME280;19946;49.306;11.350;2023-03-16T02:18:15;96803.25;;;-5.70;100.00
596;BME280;19946;49.306;11.350;2023-03-16T02:24:20;96761.66;;;-5.96;100.00
596;BME280;19946;49.306;11.350;2023-03-16T02:27:38;96815.94;;;-5.75;100.00
596;BME280;19946;49.306;11.350;2023-03-16T02:30:40;96814.72;;;-5.51;100.00
596;BME280;19946;49.306;11.350;2023-03-16T02:33:41;96787.84;;;-5.52;100.00
596;BME280;19946;49.306;11.350;2023-03-16T02:36:44;96795.66;;;-5.69;100.00
596;BME280;19946;49.306;11.350;2023-03-16T02:39:46;96808.91;;;-5.56;100.00
596;BME280;19946;49.306;11.350;2023-03-16T02:43:23;96804.84;;;-5.63;100.00
596;BME280;19946;49.306;11.350;2023-03-16T02:46:37;96783.50;;;-5.96;100.00
596;BME280;19946;49.306;11.350;2023-03-16T02:49:41;96794.34;;;-5.91;100.00
596;BME280;19946;49.306;11.350;2023-03-16T02:52:42;96797.81;;;-5.98;100.00
596;BME280;19946;49.306;11.350;2023-03-16T02:55:43;96801.25;;;-6.05;100.00
596;BME280;19946;49.306;11.350;2023-03-16T02:58:44;96775.50;;;-6.26;100.00
596;BME280;19946;49.306;11.350;2023-03-16T03:01:49;96798.81;;;-6.08;100.00
596;BME280;19946;49.306;11.350;2023-03-16T03:04:50;96807.19;;;-6.06;100.00
596;BME280;19946;49.306;11.350;2023-03-16T03:07:53;96794.69;;;-6.15;100.00
596;BME280;19946;49.306;11.350;2023-03-16T03:10:54;96805.56;;;-6.12;100.00
596;BME280;19946;49.306;11.350;2023-03-16T03:13:55;96798.97;;;-6.20;100.00
596;BME280;19946;49.306;11.350;2023-03-16T03:16:58;96770.69;;;-6.41;100.00
596;BME280;19946;49.306;11.350;2023-03-16T03:20:00;96790.72;;;-6.30;100.00
596;BME280;19946;49.306;11.350;2023-03-16T03:23:06;96779.16;;;-6.48;100.00
596;BME280;19946;49.306;11.350;2023-03-16T03:26:07;96764.00;;;-6.43;100.00
596;BME280;19946;49.306;11.350;2023-03-16T03:29:07;96776.41;;;-6.30;100.00
596;BME280;19946;49.306;11.350;2023-03-16T03:32:08;96809.47;;;-5.90;100.00
596;BME280;19946;49.306;11.350;2023-03-16T03:35:09;96770.63;;;-5.81;100.00
596;BME280;19946;49.306;11.350;2023-03-16T03:38:12;96802.53;;;-5.26;100.00
596;BME280;19946;49.306;11.350;2023-03-16T03:41:15;96807.13;;;-5.00;100.00
596;BME280;19946;49.306;11.350;2023-03-16T03:44:15;96766.75;;;-5.51;100.00
596;BME280;19946;49.306;11.350;2023-03-16T03:47:19;96789.88;;;-5.74;100.00
596;BME280;19946;49.306;11.350;2023-03-16T03:50:20;96812.72;;;-5.84;100.00
596;BME280;19946;49.306;11.350;2023-03-16T03:53:34;96815.34;;;-5.91;100.00
596;BME280;19946;49.306;11.350;2023-03-16T03:56:47;96784.44;;;-6.03;100.00
596;BME280;19946;49.306;11.350;2023-03-16T03:59:50;96816.22;;;-5.93;100.00
596;BME280;19946;49.306;11.350;2023-03-16T04:03:12;96793.75;;;-6.07;100.00
596;BME280;19946;49.306;11.350;2023-03-16T04:06:18;96789.53;;;-6.06;100.00
596;BME280;19946;49.306;11.350;2023-03-16T04:09:18;96767.94;;;-6.24;100.00
596;BME280;19946;49.306;11.350;2023-03-16T04:12:19;96799.72;;;-6.14;100.00
596;BME280;19946;49.306;11.350;2023-03-16T04:15:20;96797.97;;;-6.07;100.00
596;BME280;19946;49.306;11.350;2023-03-16T04:18:42;96809.56;;;-5.45;100.00
596;BME280;19946;49.306;11.350;2023-03-16T04:21:44;96777.63;;;-5.46;100.00
596;BME280;19946;49.306;11.350;2023-03-16T04:24:44;96760.50;;;-5.29;100.00
596;BME280;19946;49.306;11.350;2023-03-16T04:27:46;96763.72;;;-5.19;100.00
596;BME280;19946;49.306;11.350;2023-03-16T04:30:49;96788.25;;;-4.83;100.00
596;BME280;19946;49.306;11.350;2023-03-16T04:33:54;96760.44;;;-4.80;100.00
596;BME280;19946;49.306;11.350;2023-03-16T04:36:56;96788.59;;;-4.56;100.00
596;BME280;19946;49.306;11.350;2023-03-16T04:39:57;96739.44;;;-4.83;100.00
596;BME280;19946;49.306;11.350;2023-03-16T04:42:57;96777.56;;;-4.54;100.00
596;BME280;19946;49.306;11.350;2023-03-16T04:45:58;96779.38;;;-4.59;100.00
596;BME280;19946;49.306;11.350;2023-03-16T04:49:02;96776.66;;;-4.50;100.00
596;BME280;19946;49.306;11.350;2023-03-16T04:52:03;96747.19;;;-4.51;100.00
596;BME280;19946;49.306;11.350;2023-03-16T04:55:04;96763.97;;;-4.47;100.00
596;BME280;19946;49.306;11.350;2023-03-16T04:58:06;96766.59;;;-4.53;100.00
596;BME280;19946;49.306;11.350;2023-03-16T05:01:09;96729.09;;;-4.71;100.00
596;BME280;19946;49.306;11.350;2023-03-16T05:04:11;96752.47;;;-4.61;100.00
596;BME280;19946;49.306;11.350;2023-03-16T05:07:12;96773.28;;;-4.49;100.00
596;BME280;19946;49.306;11.350;2023-03-16T05:10:16;96736.38;;;-4.56;100.00
596;BME280;19946;49.306;11.350;2023-03-16T05:13:21;96741.41;;;-4.56;100.00
596;BME280;19946;49.306;11.350;2023-03-16T05:16:24;96778.09;;;-4.38;100.00
596;BME280;19946;49.306;11.350;2023-03-16T05:19:24;96774.78;;;-4.40;100.00
596;BME280;19946;49.306;11.350;2023-03-16T05:22:25;96769.91;;;-4.49;100.00
596;BME280;19946;49.306;11.350;2023-03-16T05:25:47;96756.28;;;-4.42;100.00
596;BME280;19946;49.306;11.350;2023-03-16T05:28:49;96723.78;;;-4.59;100.00
596;BME280;19946;49.306;11.350;2023-03-16T05:31:52;96768.69;;;-4.31;100.00
596;BME280;19946;49.306;11.350;2023-03-16T05:34:56;96775.38;;;-4.29;100.00
596;BME280;19946;49.306;11.350;2023-03-16T05:37:57;96752.91;;;-4.43;100.00
596;BME280;19946;49.306;11.350;2023-03-16T05:40:58;96777.06;;;-4.29;100.00
596;BME280;19946;49.306;11.350;2023-03-16T05:44:17;96751.84;;;-4.32;100.00
596;BME280;19946;49.306;11.350;2023-03-16T05:47:31;96715.34;;;-4.58;100.00
596;BME280;19946;49.306;11.350;2023-03-16T05:50:32;96740.16;;;-4.36;100.00
596;BME280;19946;49.306;11.350;2023-03-16T05:53:33;96736.63;;;-4.29;100.00
596;BME280;19946;49.306;11.350;2023-03-16T05:56:41;96772.56;;;-4.15;100.00
596;BME280;19946;49.306;11.350;2023-03-16T05:59:42;96769.19;;;-4.14;100.00
596;BME280;19946;49.306;11.350;2023-03-16T06:02:46;96757.16;;;-4.05;100.00
596;BME280;19946;49.306;11.350;2023-03-16T06:05:47;96769.34;;;-3.85;100.00
596;BME280;19946;49.306;11.350;2023-03-16T06:08:50;96765.88;;;-3.81;100.00
596;BME280;19946;49.306;11.350;2023-03-16T06:11:53;96740.66;;;-3.84;100.00
596;BME280;19946;49.306;11.350;2023-03-16T06:14:54;96737.44;;;-3.90;100.00
596;BME280;19946;49.306;11.350;2023-03-16T06:17:55;96732.25;;;-3.86;100.00
596;BME280;19946;49.306;11.350;2023-03-16T06:20:55;96773.72;;;-3.56;100.00
596;BME280;19946;49.306;11.350;2023-03-16T06:23:56;96741.94;;;-3.68;100.00
596;BME280;19946;49.306;11.350;2023-03-16T06:26:56;96775.34;;;-3.53;100.00
596;BME280;19946;49.306;11.350;2023-03-16T06:30:04;96772.41;;;-3.37;100.00
596;BME280;19946;49.306;11.350;2023-03-16T06:33:06;96777.84;;;-3.18;100.00
596;BME280;19946;49.306;11.350;2023-03-16T06:36:07;96776.00;;;-3.13;100.00
596;BME280;19946;49.306;11.350;2023-03-16T06:39:12;96781.69;;;-3.03;100.00
596;BME280;19946;49.306;11.350;2023-03-16T06:42:15;96738.47;;;-3.29;100.00
596;BME280;19946;49.306;11.350;2023-03-16T06:45:16;96757.50;;;-3.15;100.00
596;BME280;19946;49.306;11.350;2023-03-16T06:48:17;96754.19;;;-3.17;100.00
596;BME280;19946;49.306;11.350;2023-03-16T06:51:18;96764.25;;;-3.14;100.00
596;BME280;19946;49.306;11.350;2023-03-16T06:54:19;96755.13;;;-3.21;100.00
596;BME280;19946;49.306;11.350;2023-03-16T06:57:21;96793.91;;;-2.86;100.00
596;BME280;19946;49.306;11.350;2023-03-16T07:00:23;96780.72;;;-2.99;100.00
596;BME280;19946;49.306;11.350;2023-03-16T07:03:24;96764.88;;;-3.06;100.00
596;BME280;19946;49.306;11.350;2023-03-16T07:06:30;96796.94;;;-2.74;100.00
596;BME280;19946;49.306;11.350;2023-03-16T07:09:30;96778.59;;;-2.82;100.00
596;BME280;19946;49.306;11.350;2023-03-16T07:12:30;96796.78;;;-2.68;100.00
596;BME280;19946;49.306;11.350;2023-03-16T07:15:31;96750.03;;;-2.88;100.00
596;BME280;19946;49.306;11.350;2023-03-16T07:18:31;96733.34;;;-2.96;100.00
596;BME280;19946;49.306;11.350;2023-03-16T07:21:32;96748.75;;;-2.72;100.00
596;BME280;19946;49.306;11.350;2023-03-16T07:24:40;96794.59;;;-2.49;100.00
596;BME280;19946;49.306;11.350;2023-03-16T07:27:41;96756.44;;;-2.75;100.00
596;BME280;19946;49.306;11.350;2023-03-16T07:30:44;96776.31;;;-2.60;100.00
596;BME280;19946;49.306;11.350;2023-03-16T07:33:45;96775.09;;;-2.48;100.00
596;BME280;19946;49.306;11.350;2023-03-16T07:36:51;96811.66;;;-2.26;100.00
596;BME280;19946;49.306;11.350;2023-03-16T07:39:52;96818.13;;;-2.16;100.00
596;BME280;19946;49.306;11.350;2023-03-16T07:42:53;96812.13;;;-2.12;100.00
596;BME280;19946;49.306;11.350;2023-03-16T07:46:02;96808.94;;;-1.91;100.00
596;BME280;19946;49.306;11.350;2023-03-16T07:49:03;96782.19;;;-2.01;100.00
596;BME280;19946;49.306;11.350;2023-03-16T07:52:03;96807.47;;;-1.70;100.00
596;BME280;19946;49.306;11.350;2023-03-16T07:55:12;96811.31;;;-1.85;100.00
596;BME280;19946;49.306;11.350;2023-03-16T07:58:13;96810.28;;;-1.79;100.00
596;BME280;19946;49.306;11.350;2023-03-16T08:01:15;96770.56;;;-2.08;100.00
596;BME280;19946;49.306;11.350;2023-03-16T08:04:16;96772.31;;;-2.10;100.00
596;BME280;19946;49.306;11.350;2023-03-16T08:07:16;96817.06;;;-1.79;100.00
596;BME280;19946;49.306;11.350;2023-03-16T08:10:28;96805.25;;;-1.80;100.00
596;BME280;19946;49.306;11.350;2023-03-16T08:13:37;96761.56;;;-1.90;100.00
596;BME280;19946;49.306;11.350;2023-03-16T08:16:37;96814.56;;;-1.53;100.00
596;BME280;19946;49.306;11.350;2023-03-16T08:19:39;96783.97;;;-1.50;100.00
596;BME280;19946;49.306;11.350;2023-03-16T08:22:43;96802.19;;;-1.37;100.00
596;BME280;19946;49.306;11.350;2023-03-16T08:25:46;96804.84;;;-1.14;100.00
596;BME280;19946;49.306;11.350;2023-03-16T08:28:51;96782.75;;;-1.12;100.00
596;BME280;19946;49.306;11.350;2023-03-16T08:31:52;96766.16;;;-1.22;100.00
596;BME280;19946;49.306;11.350;2023-03-16T08:35:02;96757.69;;;-1.23;100.00
596;BME280;19946;49.306;11.350;2023-03-16T08:38:02;96738.94;;;-0.95;100.00
596;BME280;19946;49.306;11.350;2023-03-16T08:41:06;96795.41;;;-0.38;100.00
596;BME280;19946;49.306;11.350;2023-03-16T08:44:10;96792.06;;;0.07;100.00
596;BME280;19946;49.306;11.350;2023-03-16T08:47:12;96797.31;;;0.46;100.00
596;BME280;19946;49.306;11.350;2023-03-16T08:50:16;96763.97;;;0.52;100.00
596;BME280;19946;49.306;11.350;2023-03-16T08:53:18;96817.88;;;0.85;100.00
596;BME280;19946;49.306;11.350;2023-03-16T08:56:20;96807.50;;;0.46;100.00
596;BME280;19946;49.306;11.350;2023-03-16T08:59:20;96811.59;;;0.28;100.00
596;BME280;19946;49.306;11.350;2023-03-16T09:02:20;96814.47;;;0.64;100.00
596;BME280;19946;49.306;11.350;2023-03-16T09:05:21;96800.06;;;0.84;100.00
596;BME280;19946;49.306;11.350;2023-03-16T09:08:22;96804.09;;;1.30;100.00
596;BME280;19946;49.306;11.350;2023-03-16T09:11:23;96794.13;;;1.44;100.00
596;BME280;19946;49.306;11.350;2023-03-16T09:14:27;96792.75;;;1.56;100.00
596;BME280;19946;49.306;11.350;2023-03-16T09:17:28;96806.41;;;1.55;100.00
596;BME280;19946;49.306;11.350;2023-03-16T09:20:28;96787.47;;;1.60;100.00
596;BME280;19946;49.306;11.350;2023-03-16T09:23:29;96794.66;;;1.90;100.00
596;BME280;19946;49.306;11.350;2023-03-16T09:26:30;96777.22;;;2.35;100.00
596;BME280;19946;49.306;11.350;2023-03-16T09:29:30;96783.19;;;2.36;100.00
596;BME280;19946;49.306;11.350;2023-03-16T09:32:32;96761.78;;;2.19;100.00
596;BME280;19946;49.306;11.350;2023-03-16T09:35:33;96808.22;;;2.46;100.00
596;BME280;19946;49.306;11.350;2023-03-16T09:38:33;96802.50;;;2.41;100.00
596;BME280;19946;49.306;11.350;2023-03-16T09:45:35;96771.50;;;3.01;100.00
596;BME280;19946;49.306;11.350;2023-03-16T09:48:39;96800.53;;;3.34;100.00
596;BME280;19946;49.306;11.350;2023-03-16T09:51:47;96796.41;;;3.47;100.00
596;BME280;19946;49.306;11.350;2023-03-16T09:54:58;96789.69;;;3.29;100.00
596;BME280;19946;49.306;11.350;2023-03-16T09:58:04;96791.66;;;3.07;100.00
596;BME280;19946;49.306;11.350;2023-03-16T10:01:43;96802.38;;;3.48;100.00
596;BME280;19946;49.306;11.350;2023-03-16T10:04:56;96800.44;;;3.68;100.00
596;BME280;19946;49.306;11.350;2023-03-16T10:08:15;96767.13;;;3.53;100.00
596;BME280;19946;49.306;11.350;2023-03-16T10:11:37;96784.78;;;3.90;100.00
596;BME280;19946;49.306;11.350;2023-03-16T10:18:14;96746.34;;;3.90;100.00
596;BME280;19946;49.306;11.350;2023-03-16T10:21:18;96753.69;;;3.81;100.00
596;BME280;19946;49.306;11.350;2023-03-16T10:24:46;96755.22;;;4.32;100.00
596;BME280;19946;49.306;11.350;2023-03-16T10:27:50;96756.16;;;4.61;100.00
596;BME280;19946;49.306;11.350;2023-03-16T10:30:53;96774.78;;;4.64;100.00
596;BME280;19946;49.306;11.350;2023-03-16T10:34:02;96767.25;;;4.61;100.00
596;BME280;19946;49.306;11.350;2023-03-16T10:37:05;96775.97;;;4.73;100.00
596;BME280;19946;49.306;11.350;2023-03-16T10:40:08;96731.56;;;3.80;100.00
596;BME280;19946;49.306;11.350;2023-03-16T10:43:12;96755.75;;;4.37;100.00
596;BME280;19946;49.306;11.350;2023-03-16T10:46:13;96756.25;;;4.44;100.00
596;BME280;19946;49.306;11.350;2023-03-16T10:49:22;96753.50;;;4.47;100.00
596;BME280;19946;49.306;11.350;2023-03-16T10:52:39;96724.78;;;4.56;100.00
596;BME280;19946;49.306;11.350;2023-03-16T10:55:43;96747.63;;;4.90;100.00
596;BME280;19946;49.306;11.350;2023-03-16T10:58:44;96762.34;;;4.57;100.00
596;BME280;19946;49.306;11.350;2023-03-16T11:01:46;96726.19;;;4.31;100.00
596;BME280;19946;49.306;11.350;2023-03-16T11:04:49;96750.09;;;4.62;100.00
596;BME280;19946;49.306;11.350;2023-03-16T11:07:55;96719.56;;;4.87;100.00
596;BME280;19946;49.306;11.350;2023-03-16T11:10:59;96720.38;;;4.73;100.00
596;BME280;19946;49.306;11.350;2023-03-16T11:14:12;96706.66;;;4.89;100.00
596;BME280;19946;49.306;11.350;2023-03-16T11:17:18;96704.25;;;5.30;100.00
596;BME280;19946;49.306;11.350;2023-03-16T11:20:26;96726.22;;;5.34;100.00
596;BME280;19946;49.306;11.350;2023-03-16T11:23:31;96736.22;;;5.67;100.00
596;BME280;19946;49.306;11.350;2023-03-16T11:26:34;96711.22;;;5.28;100.00
596;BME280;19946;49.306;11.350;2023-03-16T11:29:40;96715.22;;;5.18;100.00
596;BME280;19946;49.306;11.350;2023-03-16T11:32:49;96721.25;;;5.02;100.00
596;BME280;19946;49.306;11.350;2023-03-16T11:36:08;96722.31;;;4.84;100.00
596;BME280;19946;49.306;11.350;2023-03-16T11:39:22;96723.19;;;5.13;100.00
596;BME280;19946;49.306;11.350;2023-03-16T11:42:40;96697.06;;;5.06;100.00
596;BME280;19946;49.306;11.350;2023-03-16T11:45:50;96676.13;;;4.84;100.00
596;BME280;19946;49.306;11.350;2023-03-16T11:52:34;96705.69;;;5.34;100.00
596;BME280;19946;49.306;11.350;2023-03-16T11:55:49;96703.13;;;5.62;100.00
596;BME280;19946;49.306;11.350;2023-03-16T12:02:52;96715.97;;;5.62;92.52
596;BME280;19946;49.306;11.350;2023-03-16T12:06:01;96693.00;;;5.73;83.35
596;BME280;19946;49.306;11.350;2023-03-16T12:12:33;96686.09;;;5.74;100.00
596;BME280;19946;49.306;11.350;2023-03-16T12:15:40;96651.94;;;5.59;100.00
596;BME280;19946;49.306;11.350;2023-03-16T12:18:48;96670.03;;;5.84;100.00
596;BME280;19946;49.306;11.350;2023-03-16T12:22:00;96676.31;;;5.95;100.00
596;BME280;19946;49.306;11.350;2023-03-16T12:25:03;96684.50;;;5.59;100.00
596;BME280;19946;49.306;11.350;2023-03-16T12:28:12;96661.16;;;5.76;77.89
596;BME280;19946;49.306;11.350;2023-03-16T12:31:29;96675.56;;;5.78;90.37
596;BME280;19946;49.306;11.350;2023-03-16T12:34:47;96685.50;;;6.11;100.00
596;BME280;19946;49.306;11.350;2023-03-16T12:38:06;96649.66;;;5.96;99.79
596;BME280;19946;49.306;11.350;2023-03-16T12:41:33;96659.16;;;6.08;75.35
596;BME280;19946;49.306;11.350;2023-03-16T12:44:56;96629.03;;;6.10;85.67
596;BME280;19946;49.306;11.350;2023-03-16T12:51:15;96653.84;;;6.11;74.78
596;BME280;19946;49.306;11.350;2023-03-16T12:54:21;96666.50;;;6.14;90.27
596;BME280;19946;49.306;11.350;2023-03-16T12:57:25;96632.81;;;6.31;83.04
596;BME280;19946;49.306;11.350;2023-03-16T13:00:34;96630.97;;;6.33;77.13
596;BME280;19946;49.306;11.350;2023-03-16T13:03:37;96633.13;;;6.27;67.60
596;BME280;19946;49.306;11.350;2023-03-16T13:06:42;96628.72;;;6.41;61.51
596;BME280;19946;49.306;11.350;2023-03-16T13:09:47;96576.25;;;5.77;60.64
596;BME280;19946;49.306;11.350;2023-03-16T13:12:49;96619.53;;;6.25;72.04
596;BME280;19946;49.306;11.350;2023-03-16T13:16:03;96577.31;;;5.87;65.23
596;BME280;19946;49.306;11.350;2023-03-16T13:19:25;96622.09;;;5.98;69.92
596;BME280;19946;49.306;11.350;2023-03-16T13:22:49;96610.66;;;6.16;68.40
596;BME280;19946;49.306;11.350;2023-03-16T13:26:17;96618.75;;;6.10;70.08
596;BME280;19946;49.306;11.350;2023-03-16T13:29:30;96635.28;;;6.33;73.50
596;BME280;19946;49.306;11.350;2023-03-16T13:32:32;96591.03;;;6.15;67.67
596;BME280;19946;49.306;11.350;2023-03-16T13:35:32;96601.16;;;6.43;64.10
596;BME280;19946;49.306;11.350;2023-03-16T13:38:34;96617.84;;;6.63;64.15
596;BME280;19946;49.306;11.350;2023-03-16T13:41:35;96600.72;;;6.49;59.07
596;BME280;19946;49.306;11.350;2023-03-16T13:44:39;96615.66;;;6.44;59.41
596;BME280;19946;49.306;11.350;2023-03-16T13:47:42;96629.69;;;6.13;58.09
596;BME280;19946;49.306;11.350;2023-03-16T13:50:44;96626.59;;;6.48;60.42
596;BME280;19946;49.306;11.350;2023-03-16T13:53:51;96569.13;;;6.22;58.68
596;BME280;19946;49.306;11.350;2023-03-16T13:56:56;96577.56;;;6.49;61.56
596;BME280;19946;49.306;11.350;2023-03-16T14:00:19;96593.75;;;6.51;60.19
596;BME280;19946;49.306;11.350;2023-03-16T14:03:20;96575.91;;;6.23;59.42
596;BME280;19946;49.306;11.350;2023-03-16T14:06:24;96586.94;;;6.50;61.74
596;BME280;19946;49.306;11.350;2023-03-16T14:09:28;96545.94;;;6.09;63.52
596;BME280;19946;49.306;11.350;2023-03-16T14:12:30;96575.59;;;6.15;63.83
596;BME280;19946;49.306;11.350;2023-03-16T14:15:31;96548.44;;;6.11;63.85
596;BME280;19946;49.306;11.350;2023-03-16T14:18:35;96590.47;;;6.10;67.52
596;BME280;19946;49.306;11.350;2023-03-16T14:21:36;96577.25;;;6.41;62.89
596;BME280;19946;49.306;11.350;2023-03-16T14:24:37;96549.38;;;6.22;61.71
596;BME280;19946;49.306;11.350;2023-03-16T14:30:49;96559.53;;;6.11;67.21
596;BME280;19946;49.306;11.350;2023-03-16T14:33:58;96524.34;;;5.99;70.09
596;BME280;19946;49.306;11.350;2023-03-16T14:37:15;96541.25;;;6.16;70.89
596;BME280;19946;49.306;11.350;2023-03-16T14:40:27;96565.44;;;6.39;77.25
596;BME280;19946;49.306;11.350;2023-03-16T14:43:30;96535.03;;;6.06;76.46
596;BME280;19946;49.306;11.350;2023-03-16T14:46:36;96567.06;;;6.40;68.37
596;BME280;19946;49.306;11.350;2023-03-16T14:49:37;96540.84;;;6.35;69.79
596;BME280;19946;49.306;11.350;2023-03-16T14:52:38;96545.38;;;6.44;80.57
596;BME280;19946;49.306;11.350;2023-03-16T14:55:38;96546.81;;;6.22;76.71
596;BME280;19946;49.306;11.350;2023-03-16T14:58:40;96554.69;;;6.07;80.24
596;BME280;19946;49.306;11.350;2023-03-16T15:01:41;96556.84;;;5.86;78.28
596;BME280;19946;49.306;11.350;2023-03-16T15:04:43;96544.53;;;5.52;85.07
596;BME280;19946;49.306;11.350;2023-03-16T15:07:43;96533.91;;;5.70;85.35
596;BME280;19946;49.306;11.350;2023-03-16T15:10:45;96527.06;;;5.57;81.81
596;BME280;19946;49.306;11.350;2023-03-16T15:13:49;96516.28;;;5.52;80.48
596;BME280;19946;49.306;11.350;2023-03-16T15:16:50;96536.63;;;5.81;81.04
596;BME280;19946;49.306;11.350;2023-03-16T15:19:50;96501.44;;;5.42;80.14
596;BME280;19946;49.306;11.350;2023-03-16T15:22:51;96518.88;;;5.37;79.27
596;BME280;19946;49.306;11.350;2023-03-16T15:25:52;96522.94;;;5.54;80.58
596;BME280;19946;49.306;11.350;2023-03-16T15:28:57;96497.16;;;5.56;80.58
596;BME280;19946;49.306;11.350;2023-03-16T15:31:58;96514.00;;;5.47;82.52
596;BME280;19946;49.306;11.350;2023-03-16T15:34:58;96482.25;;;5.21;86.52
596;BME280;19946;49.306;11.350;2023-03-16T15:37:59;96496.88;;;5.33;80.11
596;BME280;19946;49.306;11.350;2023-03-16T15:41:09;96489.84;;;5.23;80.90
596;BME280;19946;49.306;11.350;2023-03-16T15:44:11;96479.16;;;5.16;76.70
596;BME280;19946;49.306;11.350;2023-03-16T15:47:12;96495.03;;;5.35;75.86
596;BME280;19946;49.306;11.350;2023-03-16T15:50:15;96523.78;;;5.55;81.59
596;BME280;19946;49.306;11.350;2023-03-16T15:53:46;96492.03;;;5.29;78.04
596;BME280;19946;49.306;11.350;2023-03-16T15:56:49;96491.22;;;5.28;75.90
596;BME280;19946;49.306;11.350;2023-03-16T15:59:49;96508.63;;;5.37;80.23
596;BME280;19946;49.306;11.350;2023-03-16T16:02:51;96487.03;;;5.13;81.24
596;BME280;19946;49.306;11.350;2023-03-16T16:05:52;96478.53;;;4.98;81.47
596;BME280;19946;49.306;11.350;2023-03-16T16:08:53;96509.31;;;5.12;84.27
596;BME280;19946;49.306;11.350;2023-03-16T16:11:54;96489.78;;;5.10;82.07
596;BME280;19946;49.306;11.350;2023-03-16T16:14:55;96505.28;;;5.08;82.36
596;BME280;19946;49.306;11.350;2023-03-16T16:17:57;96520.88;;;5.05;80.94
596;BME280;19946;49.306;11.350;2023-03-16T16:20:58;96491.75;;;4.92;82.77
596;BME280;19946;49.306;11.350;2023-03-16T16:24:00;96487.84;;;4.87;86.24
596;BME280;19946;49.306;11.350;2023-03-16T16:27:05;96494.63;;;4.73;88.46
596;BME280;19946;49.306;11.350;2023-03-16T16:30:22;96528.50;;;4.93;86.55
596;BME280;19946;49.306;11.350;2023-03-16T16:33:26;96527.03;;;4.89;83.53
596;BME280;19946;49.306;11.350;2023-03-16T16:36:26;96479.72;;;4.52;92.57
596;BME280;19946;49.306;11.350;2023-03-16T16:39:32;96499.28;;;4.67;94.74
596;BME280;19946;49.306;11.350;2023-03-16T16:42:34;96512.13;;;4.67;91.91
596;BME280;19946;49.306;11.350;2023-03-16T16:45:34;96487.00;;;4.44;98.97
596;BME280;19946;49.306;11.350;2023-03-16T16:48:37;96526.31;;;4.58;100.00
596;BME280;19946;49.306;11.350;2023-03-16T16:51:38;96464.31;;;4.23;100.00
596;BME280;19946;49.306;11.350;2023-03-16T16:54:39;96486.13;;;4.30;100.00